createdAt,value
2023-09-09T00:01:43.469Z,3.80
2023-09-09T00:06:48.663Z,3.42
2023-09-09T00:11:52.614Z,3.15
2023-09-09T00:16:56.640Z,3.60
2023-09-09T00:22:01.703Z,3.70
2023-09-09T00:27:05.786Z,3.65
2023-09-09T00:32:09.818Z,3.67
2023-09-09T00:37:14.796Z,3.92
2023-09-09T00:42:18.727Z,3.15
2023-09-09T00:47:22.760Z,3.70
2023-09-09T00:52:27.961Z,3.45
2023-09-09T00:57:31.881Z,3.92
2023-09-09T01:02:35.946Z,3.90
2023-09-09T01:07:48.870Z,3.80
2023-09-09T01:12:53.031Z,4.07
2023-09-09T01:17:57.680Z,4.20
2023-09-09T01:23:03.757Z,4.32
2023-09-09T01:28:07.964Z,4.07
2023-09-09T01:33:12.505Z,4.37
2023-09-09T01:38:17.537Z,4.12
2023-09-09T01:43:21.558Z,4.05
2023-09-09T01:48:27.065Z,4.22
2023-09-09T01:53:32.241Z,3.95
2023-09-09T01:58:37.061Z,4.43
2023-09-09T02:03:41.125Z,4.70
2023-09-09T02:18:53.739Z,4.30
2023-09-09T02:23:58.925Z,4.15
2023-09-09T02:29:03.030Z,3.97
2023-09-09T02:34:07.037Z,3.62
2023-09-09T02:39:12.287Z,3.87
2023-09-09T02:44:16.410Z,4.72
2023-09-09T02:49:20.404Z,4.45
2023-09-09T02:54:25.398Z,4.32
2023-09-09T02:59:29.326Z,4.93
2023-09-09T03:04:33.674Z,4.82
2023-09-09T03:09:38.764Z,4.72
2023-09-09T03:14:43.092Z,5.80
2023-09-09T03:19:47.440Z,4.53
2023-09-09T03:24:53.162Z,4.97
2023-09-09T03:29:57.132Z,4.72
2023-09-09T03:35:01.101Z,4.20
2023-09-09T03:40:07.809Z,4.68
2023-09-09T03:45:14.149Z,5.22
2023-09-09T03:50:18.325Z,4.72
2023-09-09T03:55:23.565Z,5.12
2023-09-09T04:00:27.883Z,4.53
2023-09-09T04:05:32.665Z,4.28
2023-09-09T04:10:38.026Z,3.60
2023-09-09T04:15:42.488Z,4.15
2023-09-09T04:20:46.873Z,4.17
2023-09-09T04:30:56.085Z,4.65
2023-09-09T04:41:05.555Z,3.83
2023-09-09T04:46:10.299Z,3.83
2023-09-09T04:51:14.396Z,4.22
2023-09-09T04:56:19.698Z,4.57
2023-09-09T05:01:23.996Z,5.07
2023-09-09T05:06:28.072Z,4.37
2023-09-09T05:21:43.725Z,4.00
2023-09-09T05:26:48.948Z,3.80
2023-09-09T05:31:53.097Z,3.50
2023-09-09T05:36:57.047Z,3.95
2023-09-09T05:42:02.342Z,4.80
2023-09-09T05:47:08.243Z,4.93
2023-09-09T05:52:12.974Z,4.50
2023-09-09T05:57:18.299Z,4.60
2023-09-09T06:02:22.798Z,5.20
2023-09-09T06:07:26.876Z,4.80
2023-09-09T06:12:32.195Z,4.15
2023-09-09T06:17:37.571Z,4.90
2023-09-09T06:22:41.592Z,4.70
2023-09-09T06:27:46.761Z,4.82
2023-09-09T06:32:50.836Z,4.95
2023-09-09T06:37:54.895Z,4.97
2023-09-09T06:42:59.996Z,5.18
2023-09-09T06:48:04.622Z,6.12
2023-09-09T06:53:08.643Z,5.62
2023-09-09T06:58:15.441Z,5.03
2023-09-09T07:03:19.660Z,6.05
2023-09-09T07:08:23.748Z,5.22
2023-09-09T07:13:28.874Z,5.28
2023-09-09T07:18:32.826Z,5.37
2023-09-09T07:23:36.962Z,5.82
2023-09-09T07:33:46.116Z,5.28
2023-09-09T07:38:50.495Z,5.97
2023-09-09T07:43:55.554Z,5.20
2023-09-09T07:48:59.197Z,5.35
2023-09-09T07:54:03.095Z,5.07
2023-09-09T07:59:08.086Z,4.97
2023-09-09T08:04:12.178Z,3.12
2023-09-09T08:09:16.290Z,3.12
2023-09-09T08:14:21.303Z,3.00
2023-09-09T08:19:25.245Z,3.20
2023-09-09T08:24:28.843Z,2.50
2023-09-09T08:29:33.816Z,2.60
2023-09-09T08:34:38.531Z,2.28
2023-09-09T08:39:42.600Z,3.12
2023-09-09T08:45:03.640Z,2.33
2023-09-09T08:50:09.460Z,2.85
2023-09-09T08:55:13.677Z,2.20
2023-09-09T09:00:20.055Z,2.33
2023-09-09T09:05:24.365Z,2.40
2023-09-09T09:10:28.200Z,2.28
2023-09-09T09:15:37.244Z,1.98
2023-09-09T09:20:42.130Z,2.03
2023-09-09T09:25:47.386Z,2.35
2023-09-09T09:30:53.868Z,2.55
2023-09-09T09:35:57.869Z,3.08
2023-09-09T09:41:01.918Z,3.30
2023-09-09T09:46:16.972Z,3.10
2023-09-09T09:51:20.911Z,2.42
2023-09-09T09:56:24.479Z,2.75
2023-09-09T10:06:36.139Z,2.33
2023-09-09T10:11:46.881Z,2.17
2023-09-09T10:16:54.932Z,2.40
2023-09-09T10:22:00.166Z,2.90
2023-09-09T10:27:05.719Z,2.17
2023-09-09T10:32:12.393Z,2.00
2023-09-09T10:37:16.634Z,2.17
2023-09-09T10:42:21.201Z,1.73
2023-09-09T10:47:26.256Z,1.83
2023-09-09T10:52:32.679Z,2.15
2023-09-09T10:57:36.539Z,1.80
2023-09-09T11:02:48.258Z,1.67
2023-09-09T11:07:52.200Z,1.80
2023-09-09T11:13:00.445Z,1.83
2023-09-09T11:18:06.381Z,1.95
2023-09-09T11:23:10.667Z,1.98
2023-09-09T11:28:14.891Z,2.15
2023-09-09T11:33:26.146Z,1.58
2023-09-09T11:38:30.097Z,1.60
2023-09-09T11:43:34.173Z,2.15
2023-09-09T11:48:39.604Z,1.75
2023-09-09T11:53:43.468Z,1.60
2023-09-09T11:58:47.329Z,1.73
2023-09-09T12:03:52.870Z,2.00
2023-09-09T12:08:56.968Z,1.80
2023-09-09T12:14:01.418Z,1.92
2023-09-09T12:19:06.558Z,1.60
2023-09-09T12:24:10.542Z,1.37
2023-09-09T12:29:14.634Z,1.60
2023-09-09T12:34:21.480Z,1.60
2023-09-09T12:39:26.190Z,2.28
2023-09-09T12:44:30.208Z,1.80
2023-09-09T12:49:35.966Z,1.25
2023-09-09T12:54:39.942Z,1.75
2023-09-09T12:59:43.623Z,1.20
2023-09-09T13:04:48.606Z,1.35
2023-09-09T13:09:52.589Z,1.70
2023-09-09T13:14:57.606Z,1.70
2023-09-09T13:20:03.433Z,1.20
2023-09-09T13:25:08.618Z,1.42
2023-09-09T13:30:12.811Z,1.33
2023-09-09T13:35:18.191Z,1.23
2023-09-09T13:40:22.236Z,1.25
2023-09-09T13:45:26.364Z,1.50
2023-09-09T13:50:31.416Z,1.25
2023-09-09T13:55:35.613Z,1.33
2023-09-09T14:00:39.858Z,1.00
2023-09-09T14:05:44.827Z,1.20
2023-09-09T14:10:48.768Z,1.30
2023-09-09T14:15:52.471Z,1.10
2023-09-09T14:20:57.506Z,0.93
2023-09-09T14:26:04.961Z,1.23
2023-09-09T14:31:08.943Z,1.12
2023-09-09T14:36:13.984Z,1.20
2023-09-09T14:41:17.883Z,1.15
2023-09-09T14:46:25.113Z,1.00
2023-09-09T14:51:32.440Z,1.45
2023-09-09T14:56:36.786Z,0.80
2023-09-09T15:01:40.851Z,1.45
2023-09-09T15:06:45.997Z,1.05
2023-09-09T15:11:49.933Z,1.12
2023-09-09T15:16:57.698Z,0.77
2023-09-09T15:22:04.372Z,1.00
2023-09-09T15:27:08.479Z,1.00
2023-09-09T15:32:12.515Z,1.17
2023-09-09T15:37:17.671Z,1.20
2023-09-09T15:42:22.571Z,0.77
2023-09-09T15:47:27.278Z,0.70
2023-09-09T15:52:32.284Z,0.80
2023-09-09T15:57:36.213Z,1.10
2023-09-09T16:02:40.229Z,1.10
2023-09-09T16:07:46.197Z,1.17
2023-09-09T16:12:50.132Z,1.10
2023-09-09T16:17:54.065Z,1.02
2023-09-09T16:23:00.160Z,1.10
2023-09-09T16:28:04.022Z,0.88
2023-09-09T16:33:08.018Z,0.80
2023-09-09T16:38:13.982Z,1.10
2023-09-09T16:43:17.938Z,1.27
2023-09-09T16:48:23.205Z,1.08
2023-09-09T16:53:28.212Z,1.12
2023-09-09T16:58:32.278Z,1.25
2023-09-09T17:03:36.379Z,1.10
2023-09-09T17:08:41.491Z,1.42
2023-09-09T17:13:45.400Z,1.50
2023-09-09T17:18:49.328Z,1.35
2023-09-09T17:23:54.279Z,1.12
2023-09-09T17:28:58.206Z,1.48
2023-09-09T17:34:02.129Z,1.37
2023-09-09T17:39:10.329Z,1.10
2023-09-09T17:44:14.651Z,1.10
2023-09-09T17:49:19.470Z,1.05
2023-09-09T17:54:26.850Z,1.08
2023-09-09T17:59:31.078Z,1.00
2023-09-09T18:04:35.066Z,1.20
2023-09-09T18:09:40.079Z,1.33
2023-09-09T18:14:44.428Z,1.35
2023-09-09T18:19:48.734Z,1.92
2023-09-09T18:24:53.764Z,1.62
2023-09-09T18:29:57.716Z,1.73
2023-09-09T18:35:01.686Z,1.70
2023-09-09T18:40:08.372Z,1.30
2023-09-09T18:45:13.989Z,1.75
2023-09-09T18:50:18.280Z,1.37
2023-09-09T18:55:23.288Z,2.55
2023-09-09T19:00:27.167Z,1.50
2023-09-09T19:05:31.214Z,1.37
2023-09-09T19:10:38.356Z,1.35
2023-09-09T19:15:42.428Z,1.40
2023-09-09T19:25:53.650Z,1.92
2023-09-09T19:30:57.599Z,2.60
2023-09-09T19:36:01.485Z,2.37
2023-09-09T19:41:06.491Z,2.30
2023-09-09T19:46:10.588Z,2.65
2023-09-09T19:51:15.079Z,2.12
2023-09-09T19:56:20.641Z,3.00
2023-09-09T20:01:25.154Z,3.10
2023-09-09T20:06:29.158Z,2.90
2023-09-09T20:11:34.118Z,3.28
2023-09-09T20:16:38.203Z,3.08
2023-09-09T20:26:47.567Z,3.60
2023-09-09T20:31:53.884Z,4.00
2023-09-09T20:36:58.107Z,4.55
2023-09-09T20:47:07.757Z,3.50
2023-09-09T20:57:16.472Z,3.85
2023-09-09T21:02:20.369Z,3.87
2023-09-09T21:07:24.334Z,4.70
2023-09-09T21:12:29.387Z,4.40
2023-09-09T21:17:34.062Z,3.95
2023-09-09T21:22:38.412Z,3.95
2023-09-09T21:27:43.621Z,3.03
2023-09-09T21:32:47.601Z,2.90
2023-09-09T21:37:51.704Z,2.55
2023-09-09T21:48:00.893Z,2.95
2023-09-09T21:53:04.889Z,2.40
2023-09-09T21:58:09.947Z,2.12
2023-09-09T22:03:13.940Z,2.55
2023-09-09T22:08:20.443Z,2.53
2023-09-09T22:13:25.880Z,2.28
2023-09-09T22:18:31.439Z,2.53
2023-09-09T22:23:36.129Z,2.10
2023-09-09T22:28:41.311Z,2.20
2023-09-09T22:33:45.469Z,1.85
2023-09-09T22:38:51.405Z,2.33
2023-09-09T22:43:56.567Z,2.35
2023-09-09T22:49:00.454Z,2.58
2023-09-09T22:54:04.506Z,2.80
2023-09-09T23:04:17.705Z,3.45
2023-09-09T23:09:21.660Z,3.00
2023-09-09T23:14:26.711Z,3.60
2023-09-09T23:19:30.657Z,4.62
2023-09-09T23:24:34.304Z,5.00
2023-09-09T23:29:39.471Z,5.78
2023-09-09T23:34:43.418Z,6.18
2023-09-09T23:39:48.005Z,4.00
2023-09-09T23:44:53.004Z,3.12
2023-09-09T23:49:56.930Z,3.15
2023-09-09T23:55:01.155Z,2.58
